Decoded Metar for KMHE (MITCHELL in SD, USA) (IATA:MHE) | Meteo·Mobile Aviation Weather
aviador You're here:

KMHE Decoded Metar

MITCHELL in SD, USA
Report Time2019-08-19 17:53:00
UTC Time2019-08-19 18:39:05
Flight Rules vfr VFR
Wind150° at 10 kt
W.Decomp.*RWY 12: 9.2 kt HW 3.9 kt RCW
RWY 17: 8.9 kt HW 4.5 kt LCW
Visibility9999 m
Phenomena:N/A
Clouds:N/A
Expected CloudBase > 3,600 ft AGL from Temp-Dew spread
CeilingNone
Temp28°C (ISA +16)
Dew Point19°C (58% RH)
Heat Index29.2°C
AAT27.6°C
QNH1014 hPa
Density Alt3,353 ft
Elevation1,302 ft
Report Wrong Elevation
Raw Report
KMHE 191753Z AUTO 15010KT 10SM CLR 28/19 A2994 RMK AO2 SLP131
T02830194 10283 20161 58006=

Extra information for KMHE:More info

Metar Taf Metar & Taf Last 4 Metars F.Rules Stats Wind Profile Meteogram Temp Stats Airport Information Weather charts Add Link Nearby VenuesMetar ALERT Operation Metar Decoded Social comments

AIRNAV info for KMHE